Elk Island Park, Alberta

11:56 AM MDT on August 21, 2014 (GMT -0600)
Ardrossan | Change Station
CLOSE
Current Station
Personal Weather Station
Location: Ardrossan, ALBERTA
Elevation: 2346 ft
Nearby Weather Stations

Elev 2346 ft 53.55 °N, 113.10 °W | Updated 1 minute ago

Overcast
Overcast
54.4 °F
Feels Like 54.4 °F
N
1.0
Wind Variable Wind from North
Gusts 2.0 mph

Today is forecast to be nearly the same temperature as yesterday.

Today
High -- | Low -- °F
--% Chance of Precip.
Yesterday
High -- | Low -- °F
Precip. -- in
6:21 AM 8:46 PM
Waning Crescent, 13% visible
Pressure 30.18 in
Visibility 9.0 miles
Clouds Mostly Cloudy 1700 ft
Mostly Cloudy 3300 ft
Overcast 5400 ft
Dew Point 49 °F
Humidity 82%
Rainfall 0.00 in
Snow Depth Not available.
UV 2.1 out of 12
Pollen Not available.
Air Quality Not available.
Flu Activity Not available.
SPECI CYED 211642Z AUTO 32003KT 9SM BKN017 BKN033 OVC054 12/08 A3018

More Conditions Fewer Conditions

Pressure 30.18 in
Visibility 9.0 miles
Clouds Mostly Cloudy 1700 ft
Mostly Cloudy 3300 ft
Overcast 5400 ft
Dew Point 49 °F
Humidity 82%
Rainfall 0.00 in
Snow Depth Not available.
UV 2.1 out of 12
Pollen Not available.
Air Quality Not available.
Flu Activity Not available.
SPECI CYED 211642Z AUTO 32003KT 9SM BKN017 BKN033 OVC054 12/08 A3018

More Conditions Fewer Conditions

10-Day Weather Forecast

Almanac

Astronomy

Aug. 21, 2014 Rise Set
Actual Time 6:21 AM MDT 8:46 PM MDT
Civil Twilight 5:42 AM MDT 9:25 PM MDT
Nautical Twilight 4:52 AM MDT 10:14 PM MDT
Astronomical Twilight 3:52 AM MDT 11:13 PM MDT
Moon 2:40 AM MDT 6:30 PM MDT
Length of Visible Light 15h 43m
Length of Day
14h 25m
Tomorrow will be 4m 2s shorter.
Waning Crescent, 13% of the Moon is Illuminated
Today
Waning Crescent
Aug 25
New
Sep 2
First Quarter
Sep 8
Full
Sep 15
Last Quarter

Today's Extremes

Country Highs Country Lows

Community

WunderPhotos

Upload Photos

1,745,987 photos uploaded!

Nearby

Snow Depth

Not available.

Earthquake Activity

City Distance Mag. Time & Date
No recent earthquake activity has been reported nearby.
Minimum magnitude displayed is 2.5.

Coastal Water Temperatures

Place Temperature
No Stations Reporting

Nearby Weather Stations